sensor_id;sensor_type;location;lat;lon;timestamp;pressure;altitude;pressure_sealevel;temperature;humidity
60099;BME280;62818;49.394;8.686;2023-05-25T00:00:17;100844.03;;;12.59;56.22
60099;BME280;62818;49.394;8.686;2023-05-25T00:01:18;100836.34;;;12.64;56.58
60099;BME280;62818;49.394;8.686;2023-05-25T00:02:18;100848.50;;;12.58;56.28
60099;BME280;62818;49.394;8.686;2023-05-25T00:03:19;100844.22;;;12.57;56.26
60099;BME280;62818;49.394;8.686;2023-05-25T00:04:19;100844.03;;;12.59;56.32
60099;BME280;62818;49.394;8.686;2023-05-25T00:05:20;100837.88;;;12.58;56.73
60099;BME280;62818;49.394;8.686;2023-05-25T00:06:20;100846.03;;;12.57;56.51
60099;BME280;62818;49.394;8.686;2023-05-25T00:07:21;100844.97;;;12.66;55.83
60099;BME280;62818;49.394;8.686;2023-05-25T00:08:21;100840.59;;;12.73;55.86
60099;BME280;62818;49.394;8.686;2023-05-25T00:09:23;100838.47;;;12.69;56.11
60099;BME280;62818;49.394;8.686;2023-05-25T00:10:23;100842.88;;;12.76;56.03
60099;BME280;62818;49.394;8.686;2023-05-25T00:11:24;100837.22;;;12.79;55.40
60099;BME280;62818;49.394;8.686;2023-05-25T00:12:25;100836.91;;;12.74;55.53
60099;BME280;62818;49.394;8.686;2023-05-25T00:13:25;100839.88;;;12.79;55.24
60099;BME280;62818;49.394;8.686;2023-05-25T00:14:26;100841.53;;;12.80;55.22
60099;BME280;62818;49.394;8.686;2023-05-25T00:15:26;100836.59;;;12.77;55.47
60099;BME280;62818;49.394;8.686;2023-05-25T00:16:27;100837.88;;;12.81;55.40
60099;BME280;62818;49.394;8.686;2023-05-25T00:17:27;100840.53;;;12.81;55.39
60099;BME280;62818;49.394;8.686;2023-05-25T00:18:31;100841.41;;;12.74;56.04
60099;BME280;62818;49.394;8.686;2023-05-25T00:19:32;100843.59;;;12.70;55.76
60099;BME280;62818;49.394;8.686;2023-05-25T00:20:32;100843.41;;;12.72;56.02
60099;BME280;62818;49.394;8.686;2023-05-25T00:21:33;100839.28;;;12.69;55.72
60099;BME280;62818;49.394;8.686;2023-05-25T00:22:37;100838.00;;;12.65;56.41
60099;BME280;62818;49.394;8.686;2023-05-25T00:23:39;100836.69;;;12.61;56.69
60099;BME280;62818;49.394;8.686;2023-05-25T00:24:39;100842.00;;;12.61;56.49
60099;BME280;62818;49.394;8.686;2023-05-25T00:25:39;100833.63;;;12.72;56.03
60099;BME280;62818;49.394;8.686;2023-05-25T00:26:40;100836.34;;;12.64;56.59
60099;BME280;62818;49.394;8.686;2023-05-25T00:27:40;100826.78;;;12.55;56.51
60099;BME280;62818;49.394;8.686;2023-05-25T00:28:40;100844.03;;;12.59;56.18
60099;BME280;62818;49.394;8.686;2023-05-25T00:29:41;100840.06;;;12.55;56.62
60099;BME280;62818;49.394;8.686;2023-05-25T00:30:41;100844.22;;;12.57;56.29
60099;BME280;62818;49.394;8.686;2023-05-25T00:31:42;100846.38;;;12.54;56.70
60099;BME280;62818;49.394;8.686;2023-05-25T00:32:42;100841.56;;;12.57;56.34
60099;BME280;62818;49.394;8.686;2023-05-25T00:33:42;100847.41;;;12.53;56.44
60099;BME280;62818;49.394;8.686;2023-05-25T00:34:43;100843.50;;;12.63;56.28
60099;BME280;62818;49.394;8.686;2023-05-25T00:35:43;100844.03;;;12.59;56.41
60099;BME280;62818;49.394;8.686;2023-05-25T00:36:44;100837.72;;;12.60;56.14
60099;BME280;62818;49.394;8.686;2023-05-25T00:37:47;100831.06;;;12.56;56.46
60099;BME280;62818;49.394;8.686;2023-05-25T00:38:48;100846.88;;;12.57;56.47
60099;BME280;62818;49.394;8.686;2023-05-25T00:39:49;100841.56;;;12.57;56.46
60099;BME280;62818;49.394;8.686;2023-05-25T00:40:53;100835.69;;;12.62;56.64
60099;BME280;62818;49.394;8.686;2023-05-25T00:41:55;100846.03;;;12.57;56.62
60099;BME280;62818;49.394;8.686;2023-05-25T00:42:57;100841.44;;;12.51;56.58
60099;BME280;62818;49.394;8.686;2023-05-25T00:43:58;100846.38;;;12.54;56.86
60099;BME280;62818;49.394;8.686;2023-05-25T00:44:58;100843.44;;;12.49;57.25
60099;BME280;62818;49.394;8.686;2023-05-25T00:45:59;100851.56;;;12.47;57.06
60099;BME280;62818;49.394;8.686;2023-05-25T00:47:00;100859.72;;;12.46;57.25
60099;BME280;62818;49.394;8.686;2023-05-25T00:48:05;100847.16;;;12.40;57.25
60099;BME280;62818;49.394;8.686;2023-05-25T00:49:05;100844.97;;;12.43;57.31
60099;BME280;62818;49.394;8.686;2023-05-25T00:50:07;100848.25;;;12.45;56.87
60099;BME280;62818;49.394;8.686;2023-05-25T00:51:09;100838.13;;;12.49;56.87
60099;BME280;62818;49.394;8.686;2023-05-25T00:52:12;100849.75;;;12.48;57.18
60099;BME280;62818;49.394;8.686;2023-05-25T00:53:14;100849.94;;;12.46;57.06
60099;BME280;62818;49.394;8.686;2023-05-25T00:54:15;100851.09;;;12.44;57.39
60099;BME280;62818;49.394;8.686;2023-05-25T00:55:16;100845.41;;;12.47;57.57
60099;BME280;62818;49.394;8.686;2023-05-25T00:56:24;100847.50;;;12.37;57.49
60099;BME280;62818;49.394;8.686;2023-05-25T00:57:28;100859.13;;;12.36;57.79
60099;BME280;62818;49.394;8.686;2023-05-25T00:58:33;100858.44;;;12.42;57.28
60099;BME280;62818;49.394;8.686;2023-05-25T01:00:39;100862.44;;;12.38;57.67
60099;BME280;62818;49.394;8.686;2023-05-25T01:01:43;100853.69;;;12.52;57.13
60099;BME280;62818;49.394;8.686;2023-05-25T01:02:46;100858.06;;;12.45;57.72
60099;BME280;62818;49.394;8.686;2023-05-25T01:03:51;100860.44;;;12.40;57.73
60099;BME280;62818;49.394;8.686;2023-05-25T01:04:55;100862.69;;;12.51;57.63
60099;BME280;62818;49.394;8.686;2023-05-25T01:05:58;100855.81;;;12.34;58.31
60099;BME280;62818;49.394;8.686;2023-05-25T01:07:01;100855.13;;;12.40;58.03
60099;BME280;62818;49.394;8.686;2023-05-25T01:08:04;100847.09;;;12.48;58.39
60099;BME280;62818;49.394;8.686;2023-05-25T01:09:07;100856.63;;;12.34;58.51
60099;BME280;62818;49.394;8.686;2023-05-25T01:10:10;100851.44;;;12.41;57.61
60099;BME280;62818;49.394;8.686;2023-05-25T01:11:14;100861.09;;;12.42;57.47
60099;BME280;62818;49.394;8.686;2023-05-25T01:12:18;100858.44;;;12.42;57.70
60099;BME280;62818;49.394;8.686;2023-05-25T01:13:21;100857.06;;;12.46;57.19
60099;BME280;62818;49.394;8.686;2023-05-25T01:14:22;100856.44;;;12.44;57.35
60099;BME280;62818;49.394;8.686;2023-05-25T01:15:24;100857.72;;;12.48;57.33
60099;BME280;62818;49.394;8.686;2023-05-25T01:16:25;100865.06;;;12.46;57.71
60099;BME280;62818;49.394;8.686;2023-05-25T01:17:25;100863.75;;;12.42;57.31
60099;BME280;62818;49.394;8.686;2023-05-25T01:18:27;100868.69;;;12.45;57.29
60099;BME280;62818;49.394;8.686;2023-05-25T01:19:28;100865.06;;;12.46;57.20
60099;BME280;62818;49.394;8.686;2023-05-25T01:20:32;100871.78;;;12.56;56.72
60099;BME280;62818;49.394;8.686;2023-05-25T01:21:48;100870.38;;;12.46;57.17
60099;BME280;62818;49.394;8.686;2023-05-25T01:22:59;100877.00;;;12.50;56.82
60099;BME280;62818;49.394;8.686;2023-05-25T01:24:18;100877.31;;;12.47;57.31
60099;BME280;62818;49.394;8.686;2023-05-25T01:25:36;100867.25;;;12.42;57.74
60099;BME280;62818;49.394;8.686;2023-05-25T01:26:41;100871.88;;;12.40;57.90
60099;BME280;62818;49.394;8.686;2023-05-25T01:27:47;100866.41;;;12.42;57.72
60099;BME280;62818;49.394;8.686;2023-05-25T01:28:52;100870.84;;;12.49;57.49
60099;BME280;62818;49.394;8.686;2023-05-25T01:29:55;100872.97;;;12.54;57.27
60099;BME280;62818;49.394;8.686;2023-05-25T01:30:58;100872.97;;;12.54;57.37
60099;BME280;62818;49.394;8.686;2023-05-25T01:31:59;100871.13;;;12.54;57.72
60099;BME280;62818;49.394;8.686;2023-05-25T01:33:02;100875.69;;;12.46;57.39
60099;BME280;62818;49.394;8.686;2023-05-25T01:34:04;100871.88;;;12.40;57.89
60099;BME280;62818;49.394;8.686;2023-05-25T01:35:05;100871.06;;;12.40;57.52
60099;BME280;62818;49.394;8.686;2023-05-25T01:36:07;100871.06;;;12.40;57.41
60099;BME280;62818;49.394;8.686;2023-05-25T01:37:07;100872.25;;;12.37;58.41
60099;BME280;62818;49.394;8.686;2023-05-25T01:38:08;100863.38;;;12.45;57.35
60099;BME280;62818;49.394;8.686;2023-05-25T01:39:09;100868.69;;;12.45;57.53
60099;BME280;62818;49.394;8.686;2023-05-25T01:40:10;100873.34;;;12.51;58.06
60099;BME280;62818;49.394;8.686;2023-05-25T01:41:11;100878.41;;;12.38;57.68
60099;BME280;62818;49.394;8.686;2023-05-25T01:42:11;100872.19;;;12.45;57.60
60099;BME280;62818;49.394;8.686;2023-05-25T01:43:12;100873.03;;;12.46;57.33
60099;BME280;62818;49.394;8.686;2023-05-25T01:44:12;100869.53;;;12.45;57.60
60099;BME280;62818;49.394;8.686;2023-05-25T01:45:13;100868.69;;;12.45;57.95
60099;BME280;62818;49.394;8.686;2023-05-25T01:46:23;100871.72;;;12.42;57.50
60099;BME280;62818;49.394;8.686;2023-05-25T01:48:53;100874.06;;;12.37;57.60
60099;BME280;62818;49.394;8.686;2023-05-25T01:53:22;100864.03;;;12.47;57.63
60099;BME280;62818;49.394;8.686;2023-05-25T01:54:31;100864.75;;;12.41;57.13
60099;BME280;62818;49.394;8.686;2023-05-25T01:55:36;100873.03;;;12.46;57.08
60099;BME280;62818;49.394;8.686;2023-05-25T01:56:43;100876.09;;;12.35;57.51
60099;BME280;62818;49.394;8.686;2023-05-25T01:57:48;100878.41;;;12.38;57.70
60099;BME280;62818;49.394;8.686;2023-05-25T01:58:50;100875.44;;;12.33;57.72
60099;BME280;62818;49.394;8.686;2023-05-25T01:59:53;100880.69;;;12.41;57.74
60099;BME280;62818;49.394;8.686;2023-05-25T02:00:59;100874.13;;;12.29;57.76
60099;BME280;62818;49.394;8.686;2023-05-25T02:01:59;100876.81;;;12.21;58.20
60099;BME280;62818;49.394;8.686;2023-05-25T02:03:02;100873.69;;;12.48;58.28
60099;BME280;62818;49.394;8.686;2023-05-25T02:04:03;100869.84;;;12.20;58.64
60099;BME280;62818;49.394;8.686;2023-05-25T02:05:04;100877.81;;;12.20;58.80
60099;BME280;62818;49.394;8.686;2023-05-25T02:06:05;100874.81;;;12.23;58.32
60099;BME280;62818;49.394;8.686;2023-05-25T02:07:07;100876.22;;;12.11;59.25
60099;BME280;62818;49.394;8.686;2023-05-25T02:08:07;100879.72;;;12.03;59.80
60099;BME280;62818;49.394;8.686;2023-05-25T02:09:07;100875.38;;;12.10;59.40
60099;BME280;62818;49.394;8.686;2023-05-25T02:10:08;100876.03;;;12.12;59.76
60099;BME280;62818;49.394;8.686;2023-05-25T02:11:08;100879.56;;;12.05;59.35
60099;BME280;62818;49.394;8.686;2023-05-25T02:12:09;100865.25;;;12.14;59.58
60099;BME280;62818;49.394;8.686;2023-05-25T02:13:10;100877.56;;;11.99;59.86
60099;BME280;62818;49.394;8.686;2023-05-25T02:14:10;100876.91;;;11.97;59.76
60099;BME280;62818;49.394;8.686;2023-05-25T02:15:11;100882.41;;;11.95;60.01
60099;BME280;62818;49.394;8.686;2023-05-25T02:16:11;100875.47;;;11.86;60.62
60099;BME280;62818;49.394;8.686;2023-05-25T02:17:12;100869.84;;;11.81;60.90
60099;BME280;62818;49.394;8.686;2023-05-25T02:18:12;100872.34;;;11.82;61.03
60099;BME280;62818;49.394;8.686;2023-05-25T02:19:12;100880.69;;;11.71;61.54
60099;BME280;62818;49.394;8.686;2023-05-25T02:20:14;100872.72;;;11.71;62.05
60099;BME280;62818;49.394;8.686;2023-05-25T02:21:14;100872.34;;;11.66;62.16
60099;BME280;62818;49.394;8.686;2023-05-25T02:22:15;100876.34;;;11.70;61.64
60099;BME280;62818;49.394;8.686;2023-05-25T02:23:15;100872.84;;;11.70;61.73
60099;BME280;62818;49.394;8.686;2023-05-25T02:24:17;100876.19;;;11.72;61.78
60099;BME280;62818;49.394;8.686;2023-05-25T02:25:18;100872.63;;;11.87;61.41
60099;BME280;62818;49.394;8.686;2023-05-25T02:26:19;100874.63;;;11.94;61.58
60099;BME280;62818;49.394;8.686;2023-05-25T02:27:19;100879.38;;;11.67;63.19
60099;BME280;62818;49.394;8.686;2023-05-25T02:28:19;100879.00;;;11.70;62.52
60099;BME280;62818;49.394;8.686;2023-05-25T02:29:20;100875.97;;;11.81;62.03
60099;BME280;62818;49.394;8.686;2023-05-25T02:30:20;100876.97;;;11.88;61.58
60099;BME280;62818;49.394;8.686;2023-05-25T02:31:21;100871.03;;;11.78;61.32
60099;BME280;62818;49.394;8.686;2023-05-25T02:32:21;100875.31;;;11.79;61.76
60099;BME280;62818;49.394;8.686;2023-05-25T02:33:21;100869.88;;;11.65;62.04
60099;BME280;62818;49.394;8.686;2023-05-25T02:34:22;100864.56;;;11.65;62.79
60099;BME280;62818;49.394;8.686;2023-05-25T02:35:23;100862.59;;;11.51;62.89
60099;BME280;62818;49.394;8.686;2023-05-25T02:36:23;100867.75;;;11.44;63.44
60099;BME280;62818;49.394;8.686;2023-05-25T02:37:25;100862.44;;;11.44;63.52
60099;BME280;62818;49.394;8.686;2023-05-25T02:38:25;100859.13;;;11.42;63.51
60099;BME280;62818;49.394;8.686;2023-05-25T02:39:26;100868.41;;;11.54;63.19
60099;BME280;62818;49.394;8.686;2023-05-25T02:40:26;100860.47;;;11.38;64.19
60099;BME280;62818;49.394;8.686;2023-05-25T02:41:27;100876.06;;;11.49;63.79
60099;BME280;62818;49.394;8.686;2023-05-25T02:42:27;100864.13;;;11.37;64.24
60099;BME280;62818;49.394;8.686;2023-05-25T02:43:27;100870.22;;;11.46;65.51
60099;BME280;62818;49.394;8.686;2023-05-25T02:44:28;100861.16;;;11.24;65.63
60099;BME280;62818;49.394;8.686;2023-05-25T02:45:30;100865.13;;;11.20;65.75
60099;BME280;62818;49.394;8.686;2023-05-25T02:46:30;100864.13;;;11.29;66.23
60099;BME280;62818;49.394;8.686;2023-05-25T02:47:32;100866.97;;;11.28;65.98
60099;BME280;62818;49.394;8.686;2023-05-25T02:48:32;100863.00;;;10.99;67.40
60099;BME280;62818;49.394;8.686;2023-05-25T02:49:33;100860.66;;;10.88;68.50
60099;BME280;62818;49.394;8.686;2023-05-25T02:50:33;100862.34;;;10.81;68.66
60099;BME280;62818;49.394;8.686;2023-05-25T02:51:33;100860.84;;;10.79;69.50
60099;BME280;62818;49.394;8.686;2023-05-25T02:52:34;100854.38;;;10.89;69.18
60099;BME280;62818;49.394;8.686;2023-05-25T02:53:35;100849.91;;;11.14;68.80
60099;BME280;62818;49.394;8.686;2023-05-25T02:54:35;100863.00;;;11.15;68.17
60099;BME280;62818;49.394;8.686;2023-05-25T02:55:36;100862.81;;;11.17;67.46
60099;BME280;62818;49.394;8.686;2023-05-25T02:56:39;100860.16;;;11.17;67.74
60099;BME280;62818;49.394;8.686;2023-05-25T02:57:41;100860.81;;;11.43;67.25
60099;BME280;62818;49.394;8.686;2023-05-25T02:58:41;100852.19;;;11.33;67.42
60099;BME280;62818;49.394;8.686;2023-05-25T02:59:42;100848.88;;;11.31;66.95
60099;BME280;62818;49.394;8.686;2023-05-25T03:00:42;100850.88;;;11.21;67.46
60099;BME280;62818;49.394;8.686;2023-05-25T03:01:43;100862.13;;;11.47;66.77
60099;BME280;62818;49.394;8.686;2023-05-25T03:02:44;100852.81;;;11.51;65.06
60099;BME280;62818;49.394;8.686;2023-05-25T03:03:46;100852.69;;;11.37;64.80
60099;BME280;62818;49.394;8.686;2023-05-25T03:04:51;100851.38;;;11.25;65.57
60099;BME280;62818;49.394;8.686;2023-05-25T03:05:52;100844.88;;;11.43;66.03
60099;BME280;62818;49.394;8.686;2023-05-25T03:06:53;100852.31;;;11.56;64.73
60099;BME280;62818;49.394;8.686;2023-05-25T03:07:53;100850.63;;;11.55;64.93
60099;BME280;62818;49.394;8.686;2023-05-25T03:08:53;100852.78;;;11.59;63.46
60099;BME280;62818;49.394;8.686;2023-05-25T03:09:57;100851.19;;;11.42;64.17
60099;BME280;62818;49.394;8.686;2023-05-25T03:10:58;100851.28;;;11.57;63.85
60099;BME280;62818;49.394;8.686;2023-05-25T03:11:58;100847.72;;;11.34;64.88
60099;BME280;62818;49.394;8.686;2023-05-25T03:12:59;100846.56;;;11.36;64.37
60099;BME280;62818;49.394;8.686;2023-05-25T03:13:59;100850.50;;;11.40;64.62
60099;BME280;62818;49.394;8.686;2023-05-25T03:15:00;100851.13;;;11.50;64.10
60099;BME280;62818;49.394;8.686;2023-05-25T03:16:00;100853.47;;;11.69;64.39
60099;BME280;62818;49.394;8.686;2023-05-25T03:17:00;100846.81;;;11.73;63.08
60099;BME280;62818;49.394;8.686;2023-05-25T03:18:01;100855.78;;;11.48;63.79
60099;BME280;62818;49.394;8.686;2023-05-25T03:19:02;100849.84;;;11.38;63.94
60099;BME280;62818;49.394;8.686;2023-05-25T03:20:04;100859.78;;;11.44;64.71
60099;BME280;62818;49.394;8.686;2023-05-25T03:21:05;100848.53;;;11.42;63.99
60099;BME280;62818;49.394;8.686;2023-05-25T03:22:05;100853.50;;;11.37;64.25
60099;BME280;62818;49.394;8.686;2023-05-25T03:23:06;100852.19;;;11.33;64.09
60099;BME280;62818;49.394;8.686;2023-05-25T03:24:06;100847.59;;;11.19;65.44
60099;BME280;62818;49.394;8.686;2023-05-25T03:25:06;100854.50;;;11.36;65.52
60099;BME280;62818;49.394;8.686;2023-05-25T03:26:08;100858.50;;;11.32;64.84
60099;BME280;62818;49.394;8.686;2023-05-25T03:27:08;100858.84;;;11.29;65.15
60099;BME280;62818;49.394;8.686;2023-05-25T03:28:09;100862.16;;;11.23;65.21
60099;BME280;62818;49.394;8.686;2023-05-25T03:29:09;100861.66;;;11.11;65.98
60099;BME280;62818;49.394;8.686;2023-05-25T03:30:10;100867.28;;;11.41;65.85
60099;BME280;62818;49.394;8.686;2023-05-25T03:31:11;100862.81;;;11.25;65.65
60099;BME280;62818;49.394;8.686;2023-05-25T03:32:11;100867.47;;;11.15;65.64
60099;BME280;62818;49.394;8.686;2023-05-25T03:33:11;100869.78;;;11.26;65.41
60099;BME280;62818;49.394;8.686;2023-05-25T03:34:13;100871.59;;;11.34;65.45
60099;BME280;62818;49.394;8.686;2023-05-25T03:35:13;100870.06;;;11.39;65.04
60099;BME280;62818;49.394;8.686;2023-05-25T03:36:14;100868.41;;;11.46;64.45
60099;BME280;62818;49.394;8.686;2023-05-25T03:37:16;100876.22;;;11.40;64.28
60099;BME280;62818;49.394;8.686;2023-05-25T03:38:16;100873.75;;;11.30;64.97
60099;BME280;62818;49.394;8.686;2023-05-25T03:39:17;100870.44;;;11.28;65.50
60099;BME280;62818;49.394;8.686;2023-05-25T03:40:17;100875.53;;;11.46;64.59
60099;BME280;62818;49.394;8.686;2023-05-25T03:41:18;100877.75;;;11.34;65.00
60099;BME280;62818;49.394;8.686;2023-05-25T03:42:19;100874.44;;;11.32;65.40
60099;BME280;62818;49.394;8.686;2023-05-25T03:43:19;100883.84;;;11.51;64.95
60099;BME280;62818;49.394;8.686;2023-05-25T03:44:20;100883.69;;;11.44;64.84
60099;BME280;62818;49.394;8.686;2023-05-25T03:45:20;100883.03;;;11.34;65.19
60099;BME280;62818;49.394;8.686;2023-05-25T03:46:20;100877.53;;;11.44;66.04
60099;BME280;62818;49.394;8.686;2023-05-25T03:47:21;100878.53;;;11.35;65.57
60099;BME280;62818;49.394;8.686;2023-05-25T03:48:21;100877.22;;;11.31;66.53
60099;BME280;62818;49.394;8.686;2023-05-25T03:49:22;100883.69;;;11.28;66.06
60099;BME280;62818;49.394;8.686;2023-05-25T03:50:22;100879.22;;;11.29;66.18
60099;BME280;62818;49.394;8.686;2023-05-25T03:51:22;100878.38;;;11.28;65.80
60099;BME280;62818;49.394;8.686;2023-05-25T03:52:23;100875.25;;;11.25;65.81
60099;BME280;62818;49.394;8.686;2023-05-25T03:53:23;100876.41;;;11.22;66.10
60099;BME280;62818;49.394;8.686;2023-05-25T03:54:23;100879.03;;;11.30;65.43
60099;BME280;62818;49.394;8.686;2023-05-25T03:55:24;100878.75;;;11.25;65.55
60099;BME280;62818;49.394;8.686;2023-05-25T03:56:24;100883.72;;;11.20;66.48
60099;BME280;62818;49.394;8.686;2023-05-25T03:57:25;100884.34;;;11.30;66.02
60099;BME280;62818;49.394;8.686;2023-05-25T03:58:25;100882.06;;;11.27;65.74
60099;BME280;62818;49.394;8.686;2023-05-25T03:59:26;100885.03;;;11.40;65.63
60099;BME280;62818;49.394;8.686;2023-05-25T04:00:26;100882.53;;;11.47;65.06
60099;BME280;62818;49.394;8.686;2023-05-25T04:01:26;100882.88;;;11.28;66.14
60099;BME280;62818;49.394;8.686;2023-05-25T04:02:31;100890.00;;;11.43;65.81
60099;BME280;62818;49.394;8.686;2023-05-25T04:03:33;100892.31;;;11.46;65.38
60099;BME280;62818;49.394;8.686;2023-05-25T04:04:34;100875.69;;;11.52;64.95
60099;BME280;62818;49.394;8.686;2023-05-25T04:05:34;100891.00;;;11.34;65.89
60099;BME280;62818;49.394;8.686;2023-05-25T04:06:35;100887.00;;;11.46;66.45
60099;BME280;62818;49.394;8.686;2023-05-25T04:07:36;100886.38;;;11.36;65.89
60099;BME280;62818;49.394;8.686;2023-05-25T04:08:36;100892.50;;;11.29;66.18
60099;BME280;62818;49.394;8.686;2023-05-25T04:09:39;100891.16;;;11.41;66.79
60099;BME280;62818;49.394;8.686;2023-05-25T04:10:40;100886.31;;;11.52;66.46
60099;BME280;62818;49.394;8.686;2023-05-25T04:11:40;100895.25;;;11.59;65.97
60099;BME280;62818;49.394;8.686;2023-05-25T04:12:41;100890.59;;;11.61;65.67
60099;BME280;62818;49.394;8.686;2023-05-25T04:13:41;100896.59;;;11.71;64.89
60099;BME280;62818;49.394;8.686;2023-05-25T04:14:42;100898.22;;;11.88;64.96
60099;BME280;62818;49.394;8.686;2023-05-25T04:15:45;100900.56;;;11.59;64.20
60099;BME280;62818;49.394;8.686;2023-05-25T04:16:46;100897.09;;;11.59;65.81
60099;BME280;62818;49.394;8.686;2023-05-25T04:17:46;100904.72;;;11.70;65.21
60099;BME280;62818;49.394;8.686;2023-05-25T04:18:46;100900.59;;;11.67;64.85
60099;BME280;62818;49.394;8.686;2023-05-25T04:19:47;100899.09;;;11.57;65.42
60099;BME280;62818;49.394;8.686;2023-05-25T04:20:47;100909.19;;;11.77;64.93
60099;BME280;62818;49.394;8.686;2023-05-25T04:21:48;100901.88;;;11.63;64.65
60099;BME280;62818;49.394;8.686;2023-05-25T04:22:49;100899.41;;;11.62;65.86
60099;BME280;62818;49.394;8.686;2023-05-25T04:23:49;100905.22;;;11.57;65.46
60099;BME280;62818;49.394;8.686;2023-05-25T04:24:49;100897.91;;;11.75;66.03
60099;BME280;62818;49.394;8.686;2023-05-25T04:25:50;100910.19;;;11.76;65.13
60099;BME280;62818;49.394;8.686;2023-05-25T04:26:50;100906.19;;;11.88;64.38
60099;BME280;62818;49.394;8.686;2023-05-25T04:27:51;100901.59;;;11.58;65.80
60099;BME280;62818;49.394;8.686;2023-05-25T04:28:53;100902.41;;;11.59;66.96
60099;BME280;62818;49.394;8.686;2023-05-25T04:29:53;100905.56;;;11.62;67.03
60099;BME280;62818;49.394;8.686;2023-05-25T04:30:54;100908.06;;;11.72;65.54
60099;BME280;62818;49.394;8.686;2023-05-25T04:31:55;100912.19;;;11.74;66.07
60099;BME280;62818;49.394;8.686;2023-05-25T04:32:56;100913.16;;;11.81;66.75
60099;BME280;62818;49.394;8.686;2023-05-25T04:34:01;100912.34;;;11.65;65.86
60099;BME280;62818;49.394;8.686;2023-05-25T04:35:02;100916.84;;;11.64;66.06
60099;BME280;62818;49.394;8.686;2023-05-25T04:36:04;100923.78;;;11.89;66.12
60099;BME280;62818;49.394;8.686;2023-05-25T04:37:05;100923.06;;;12.04;65.23
60099;BME280;62818;49.394;8.686;2023-05-25T04:38:07;100920.53;;;12.10;64.20
60099;BME280;62818;49.394;8.686;2023-05-25T04:39:11;100918.78;;;11.95;64.33
60099;BME280;62818;49.394;8.686;2023-05-25T04:40:11;100917.44;;;11.99;65.04
60099;BME280;62818;49.394;8.686;2023-05-25T04:41:13;100915.50;;;11.76;65.01
60099;BME280;62818;49.394;8.686;2023-05-25T04:42:14;100917.13;;;11.94;65.65
60099;BME280;62818;49.394;8.686;2023-05-25T04:43:16;100913.84;;;11.75;65.55
60099;BME280;62818;49.394;8.686;2023-05-25T04:44:17;100914.94;;;11.97;65.60
60099;BME280;62818;49.394;8.686;2023-05-25T04:45:18;100913.47;;;11.95;65.64
60099;BME280;62818;49.394;8.686;2023-05-25T04:46:20;100913.03;;;11.75;65.24
60099;BME280;62818;49.394;8.686;2023-05-25T04:47:21;100913.97;;;11.90;65.56
60099;BME280;62818;49.394;8.686;2023-05-25T04:48:21;100911.16;;;11.83;66.29
60099;BME280;62818;49.394;8.686;2023-05-25T04:49:23;100919.94;;;11.92;65.60
60099;BME280;62818;49.394;8.686;2023-05-25T04:50:25;100924.44;;;11.92;65.34
60099;BME280;62818;49.394;8.686;2023-05-25T04:51:25;100908.50;;;11.92;66.08
60099;BME280;62818;49.394;8.686;2023-05-25T04:52:26;100919.13;;;11.83;66.08
60099;BME280;62818;49.394;8.686;2023-05-25T04:53:26;100918.47;;;11.81;65.62
60099;BME280;62818;49.394;8.686;2023-05-25T04:54:26;100916.16;;;11.86;65.72
60099;BME280;62818;49.394;8.686;2023-05-25T04:55:27;100915.81;;;11.81;66.31
60099;BME280;62818;49.394;8.686;2023-05-25T04:56:27;100920.16;;;11.82;66.20
60099;BME280;62818;49.394;8.686;2023-05-25T04:57:28;100920.16;;;11.82;66.68
60099;BME280;62818;49.394;8.686;2023-05-25T04:58:30;100919.94;;;11.92;66.17
60099;BME280;62818;49.394;8.686;2023-05-25T04:59:31;100917.94;;;12.02;66.06
60099;BME280;62818;49.394;8.686;2023-05-25T05:00:32;100923.38;;;12.09;66.42
60099;BME280;62818;49.394;8.686;2023-05-25T05:01:33;100918.06;;;12.01;65.53
60099;BME280;62818;49.394;8.686;2023-05-25T05:02:39;100920.91;;;11.99;65.93
60099;BME280;62818;49.394;8.686;2023-05-25T05:03:40;100920.44;;;11.87;65.17
60099;BME280;62818;49.394;8.686;2023-05-25T05:04:40;100920.78;;;11.93;65.28
60099;BME280;62818;49.394;8.686;2023-05-25T05:05:41;100922.44;;;11.85;66.96
60099;BME280;62818;49.394;8.686;2023-05-25T05:06:43;100926.91;;;11.93;65.61
60099;BME280;62818;49.394;8.686;2023-05-25T05:07:43;100932.38;;;12.00;65.01
60099;BME280;62818;49.394;8.686;2023-05-25T05:08:43;100926.44;;;11.89;65.60
60099;BME280;62818;49.394;8.686;2023-05-25T05:09:44;100929.06;;;11.98;64.73
60099;BME280;62818;49.394;8.686;2023-05-25T05:10:44;100931.75;;;11.89;66.17
60099;BME280;62818;49.394;8.686;2023-05-25T05:11:44;100930.41;;;11.85;65.96
60099;BME280;62818;49.394;8.686;2023-05-25T05:12:45;100946.00;;;12.05;64.95
60099;BME280;62818;49.394;8.686;2023-05-25T05:13:45;100942.69;;;12.03;65.87
60099;BME280;62818;49.394;8.686;2023-05-25T05:14:46;100948.66;;;12.05;65.46
60099;BME280;62818;49.394;8.686;2023-05-25T05:15:46;100942.69;;;11.95;65.86
60099;BME280;62818;49.394;8.686;2023-05-25T05:16:46;100940.84;;;11.95;65.74
60099;BME280;62818;49.394;8.686;2023-05-25T05:17:47;100946.00;;;12.05;65.97
60099;BME280;62818;49.394;8.686;2023-05-25T05:18:47;100946.66;;;11.99;65.58
60099;BME280;62818;49.394;8.686;2023-05-25T05:19:48;100939.50;;;11.99;65.47
60099;BME280;62818;49.394;8.686;2023-05-25T05:20:48;100945.47;;;12.01;65.23
60099;BME280;62818;49.394;8.686;2023-05-25T05:21:48;100944.31;;;12.04;65.86
60099;BME280;62818;49.394;8.686;2023-05-25T05:22:49;100943.94;;;12.15;65.71
60099;BME280;62818;49.394;8.686;2023-05-25T05:23:50;100948.28;;;12.16;65.17
60099;BME280;62818;49.394;8.686;2023-05-25T05:24:50;100949.31;;;12.07;65.70
60099;BME280;62818;49.394;8.686;2023-05-25T05:25:50;100956.06;;;12.17;65.14
60099;BME280;62818;49.394;8.686;2023-05-25T05:26:51;100947.63;;;12.14;65.87